Time;durP1;ratioP1;P1;durP2;ratioP2;P2;SDS_P1;SDS_P2;PMS_P1;PMS_P2;Temp;Humidity;BMP_temperature;BMP_pressure;BME280_temperature;BME280_humidity;BME280_pressure;Samples;Min_cycle;Max_cycle;Signal;HPM_P1;HPM_P2
2021/05/28 00:01:33;;;;;;;10.13;8.97;;;;;;;11.53;77.62;99400.38;5092640;28;41754;-79
2021/05/28 00:04:02;;;;;;;8.53;7.63;;;;;;;11.48;77.44;99397.13;5093914;28;40054;-80
2021/05/28 00:06:30;;;;;;;10.80;8.83;;;;;;;11.41;77.22;99401.06;5093025;28;40575;-80
2021/05/28 00:08:57;;;;;;;8.07;7.37;;;;;;;11.29;77.49;99392.00;5109687;28;43247;-79
2021/05/28 00:11:24;;;;;;;10.17;9.17;;;;;;;11.19;77.56;99395.28;5110370;28;41918;-81
2021/05/28 00:13:51;;;;;;;7.93;7.13;;;;;;;11.01;77.52;99387.41;5110290;28;39033;-81
2021/05/28 00:16:18;;;;;;;7.40;6.13;;;;;;;11.06;77.43;99405.72;5092951;28;40740;-81
2021/05/28 00:18:45;;;;;;;8.53;7.73;;;;;;;10.97;77.25;99404.44;5092702;28;41727;-80
2021/05/28 00:21:14;;;;;;;9.07;7.30;;;;;;;10.90;77.50;99402.19;5093246;28;41407;-79
2021/05/28 00:23:41;;;;;;;9.40;7.40;;;;;;;10.84;77.71;99403.41;5093235;28;39364;-80
2021/05/28 00:26:09;;;;;;;10.00;8.97;;;;;;;10.77;77.82;99400.22;5109500;28;41459;-79
2021/05/28 00:28:36;;;;;;;9.00;8.10;;;;;;;10.67;77.64;99398.16;5110221;28;42715;-78
2021/05/28 00:31:03;;;;;;;9.03;8.03;;;;;;;10.68;77.65;99407.81;5110130;27;42207;-79
2021/05/28 00:33:30;;;;;;;11.73;9.60;;;;;;;10.59;77.59;99400.38;5111696;27;39830;-79
2021/05/28 00:35:58;;;;;;;8.23;7.53;;;;;;;10.49;77.89;99400.00;5109113;28;42082;-79
2021/05/28 00:38:26;;;;;;;8.10;7.10;;;;;;;10.51;77.74;99413.19;5110656;28;42417;-78
2021/05/28 00:40:53;;;;;;;10.80;9.70;;;;;;;10.44;77.56;99417.94;5092906;28;42050;-80
2021/05/28 00:43:20;;;;;;;8.60;7.80;;;;;;;10.39;77.50;99414.66;5093374;28;40022;-79
2021/05/28 00:45:47;;;;;;;9.17;8.33;;;;;;;10.35;77.60;99407.84;5110777;27;41246;-79
2021/05/28 00:48:15;;;;;;;9.70;8.70;;;;;;;10.31;77.71;99407.13;5109903;28;43532;-79
2021/05/28 00:50:42;;;;;;;9.33;8.33;;;;;;;10.23;77.82;99397.88;5092977;28;41145;-80
2021/05/28 00:53:09;;;;;;;10.43;9.33;;;;;;;10.22;77.75;99407.63;5111119;27;40803;-81
2021/05/28 00:55:37;;;;;;;10.17;8.77;;;;;;;10.24;78.00;99424.28;5110057;28;41004;-80
2021/05/28 00:58:05;;;;;;;12.13;10.87;;;;;;;10.23;77.88;99419.91;5092844;28;42910;-79
2021/05/28 01:00:32;;;;;;;11.07;9.10;;;;;;;10.20;77.81;99401.53;5109988;27;42300;-80
2021/05/28 01:03:00;;;;;;;10.63;9.00;;;;;;;10.17;77.85;99416.69;5109937;28;38860;-80
2021/05/28 01:05:27;;;;;;;11.37;10.17;;;;;;;10.13;78.19;99412.50;5110313;27;41657;-78
2021/05/28 01:07:55;;;;;;;12.90;10.40;;;;;;;10.08;78.01;99404.78;5109912;28;43526;-79
2021/05/28 01:10:22;;;;;;;10.90;9.80;;;;;;;10.03;77.98;99407.66;5110121;27;41839;-79
2021/05/28 01:12:50;;;;;;;11.37;10.20;;;;;;;9.98;78.30;99408.84;5109222;28;39473;-80
2021/05/28 01:15:22;;;;;;;10.20;9.20;;;;;;;9.93;78.01;99405.56;5092920;28;40649;-78
2021/05/28 01:17:50;;;;;;;9.90;8.90;;;;;;;9.89;77.97;99404.03;5109460;28;43213;-78
2021/05/28 01:20:17;;;;;;;11.30;9.93;;;;;;;9.85;78.31;99411.28;5108806;28;42485;-79
2021/05/28 01:22:45;;;;;;;9.70;8.70;;;;;;;9.83;77.79;99412.28;5125821;27;39306;-79
2021/05/28 01:25:13;;;;;;;12.73;11.43;;;;;;;9.82;77.90;99419.34;5092097;28;41849;-79
2021/05/28 01:27:41;;;;;;;10.23;9.13;;;;;;;9.81;77.81;99409.69;5110330;27;42527;-80
2021/05/28 01:30:09;;;;;;;11.17;9.47;;;;;;;9.75;77.92;99391.50;5090647;28;42518;-80
2021/05/28 01:32:37;;;;;;;10.60;9.57;;;;;;;9.72;77.68;99403.09;5110005;27;39889;-78
2021/05/28 01:35:05;;;;;;;10.73;9.63;;;;;;;9.82;77.72;99418.50;5142695;27;42335;-79
2021/05/28 01:37:32;;;;;;;10.53;9.53;;;;;;;9.83;77.95;99414.91;5110586;27;43079;-80
2021/05/28 01:40:00;;;;;;;11.67;10.50;;;;;;;9.83;78.58;99420.22;5143245;27;42076;-80
2021/05/28 01:42:27;;;;;;;11.57;10.13;;;;;;;9.73;78.04;99402.16;5109270;28;40041;-79
2021/05/28 01:44:57;;;;;;;11.67;10.13;;;;;;;9.84;78.01;99424.56;5109071;28;41754;-80
2021/05/28 01:47:24;;;;;;;10.87;9.20;;;;;;;9.72;77.96;99402.25;5092001;28;41882;-79
2021/05/28 01:49:51;;;;;;;11.50;10.40;;;;;;;9.80;78.35;99420.34;5092104;28;41086;-79
2021/05/28 01:52:19;;;;;;;10.47;9.43;;;;;;;9.85;77.91;99424.50;5091247;28;39287;-79
2021/05/28 01:54:46;;;;;;;9.57;8.53;;;;;;;9.90;78.02;99426.88;5109034;28;41879;-80
2021/05/28 01:57:14;;;;;;;9.53;8.60;;;;;;;9.58;78.08;99375.63;5106902;28;43454;-79
2021/05/28 01:59:43;;;;;;;14.63;12.40;;;;;;;9.97;78.02;99418.59;5108830;28;42718;-80
2021/05/28 02:02:11;;;;;;;10.70;9.63;;;;;;;9.92;77.58;99407.38;5091035;28;38899;-79
2021/05/28 02:04:39;;;;;;;11.33;10.13;;;;;;;10.04;77.92;99419.09;5107083;28;42496;-79
2021/05/28 02:07:06;;;;;;;13.53;12.13;;;;;;;10.07;77.73;99421.59;5109338;27;42624;-80
2021/05/28 02:09:45;;;;;;;13.50;11.17;;;;;;;10.07;77.97;99424.25;5109195;27;42458;-80
2021/05/28 02:12:12;;;;;;;11.10;10.00;;;;;;;10.09;78.11;99420.59;5107959;28;39972;-79
2021/05/28 02:14:41;;;;;;;10.97;9.87;;;;;;;10.09;77.82;99419.75;5108395;28;42475;-78
2021/05/28 02:17:09;;;;;;;10.50;9.40;;;;;;;9.98;77.64;99395.63;5109370;27;44813;-80
2021/05/28 02:19:37;;;;;;;8.87;8.07;;;;;;;10.19;77.68;99423.66;5108263;28;42030;-78
2021/05/28 02:22:06;;;;;;;11.23;9.63;;;;;;;10.33;77.86;99439.69;5090772;28;38795;-79
2021/05/28 02:24:33;;;;;;;15.33;13.03;;;;;;;10.38;77.94;99445.59;5092035;28;40699;-80
2021/05/28 02:27:00;;;;;;;13.67;11.73;;;;;;;10.43;77.46;99445.34;5090651;28;41570;-79
2021/05/28 02:29:27;;;;;;;13.40;12.03;;;;;;;10.47;77.63;99454.00;5109014;27;41706;-81
2021/05/28 02:31:55;;;;;;;14.90;12.77;;;;;;;10.48;77.82;99445.09;5107435;28;41831;-78
2021/05/28 02:34:22;;;;;;;13.97;11.40;;;;;;;10.53;77.81;99448.34;5107499;28;42511;-79
2021/05/28 02:36:49;;;;;;;14.03;12.40;;;;;;;10.54;77.91;99444.78;5109479;27;42549;-80
2021/05/28 02:39:16;;;;;;;11.20;10.10;;;;;;;10.58;77.61;99447.19;5109564;27;42411;-79
2021/05/28 02:41:43;;;;;;;15.20;12.00;;;;;;;10.61;77.45;99447.03;5109251;28;40732;-79
2021/05/28 02:44:11;;;;;;;14.00;12.27;;;;;;;10.64;78.02;99446.84;5111984;28;41037;-80
2021/05/28 02:46:38;;;;;;;14.57;13.07;;;;;;;10.60;77.94;99433.88;5112713;27;42824;-78
2021/05/28 02:49:06;;;;;;;15.33;13.07;;;;;;;10.57;77.94;99429.59;5112020;28;42240;-81
2021/05/28 02:51:33;;;;;;;14.37;12.30;;;;;;;10.70;78.09;99450.97;5112508;27;39948;-79
2021/05/28 02:54:00;;;;;;;12.80;11.50;;;;;;;10.73;77.75;99445.53;5111208;28;42167;-79
2021/05/28 02:56:27;;;;;;;12.17;10.30;;;;;;;10.65;77.83;99429.16;5112221;27;42721;-79
2021/05/28 02:58:54;;;;;;;12.03;10.83;;;;;;;10.63;77.80;99429.25;5112016;28;41227;-81
2021/05/28 03:01:21;;;;;;;10.13;9.13;;;;;;;10.58;77.35;99414.53;5094165;28;40225;-79
2021/05/28 03:03:48;;;;;;;13.07;11.70;;;;;;;10.74;77.74;99437.50;5111134;28;41563;-78
2021/05/28 03:06:16;;;;;;;11.40;10.33;;;;;;;10.75;77.82;99435.69;5094176;28;41949;-78
2021/05/28 03:08:44;;;;;;;10.43;9.33;;;;;;;10.85;77.71;99451.94;5110959;28;42227;-78
2021/05/28 03:11:11;;;;;;;11.33;10.13;;;;;;;10.86;77.63;99457.16;5110450;28;40657;-80
2021/05/28 03:13:40;;;;;;;11.83;10.63;;;;;;;10.87;77.70;99450.06;5111890;27;42182;-80
2021/05/28 03:16:07;;;;;;;10.20;9.10;;;;;;;10.83;77.38;99441.44;5111917;27;43462;-79
2021/05/28 03:18:45;;;;;;;9.37;8.37;;;;;;;10.77;77.60;99431.16;5110991;28;42322;-80
2021/05/28 03:21:20;;;;;;;8.53;7.73;;;;;;;10.90;77.27;99456.03;5111019;28;39881;-79
2021/05/28 03:23:49;;;;;;;9.43;8.53;;;;;;;10.93;77.22;99458.53;5110395;28;41761;-80
2021/05/28 03:26:16;;;;;;;10.73;9.63;;;;;;;10.93;77.31;99455.88;5111358;28;43002;-80
2021/05/28 03:28:44;;;;;;;10.47;9.47;;;;;;;10.94;77.23;99460.25;5094068;28;41196;-80
2021/05/28 03:31:12;;;;;;;10.83;9.20;;;;;;;10.95;77.26;99456.66;5094245;28;39763;-79
2021/05/28 03:33:40;;;;;;;8.40;7.60;;;;;;;10.97;77.08;99453.94;5111181;28;42568;-79
2021/05/28 03:36:08;;;;;;;10.03;9.13;;;;;;;10.98;77.63;99453.84;5093064;28;41705;-79
2021/05/28 03:38:36;;;;;;;9.67;8.67;;;;;;;10.99;77.55;99458.22;5111165;28;43029;-79
2021/05/28 03:41:04;;;;;;;9.20;8.30;;;;;;;10.90;77.62;99437.50;5093331;28;40320;-78
2021/05/28 03:43:32;;;;;;;9.27;8.37;;;;;;;11.03;77.48;99464.19;5111150;28;40322;-80
2021/05/28 03:45:59;;;;;;;10.57;9.57;;;;;;;11.03;77.62;99464.19;5110167;28;43243;-79
2021/05/28 03:48:26;;;;;;;9.80;8.80;;;;;;;11.03;77.43;99459.75;5110770;28;42605;-80
2021/05/28 03:50:53;;;;;;;10.30;8.57;;;;;;;11.06;77.36;99462.22;5111863;27;39604;-78
2021/05/28 03:53:21;;;;;;;9.53;8.63;;;;;;;11.09;77.36;99461.22;5109786;27;42625;-79
2021/05/28 03:55:49;;;;;;;14.00;10.57;;;;;;;11.10;77.50;99466.44;5110703;28;41583;-81
2021/05/28 03:58:17;;;;;;;12.50;10.07;;;;;;;11.12;77.47;99464.56;5110138;28;42600;-82
2021/05/28 04:00:44;;;;;;;9.73;8.83;;;;;;;11.12;77.10;99459.25;5110390;28;39783;-78
2021/05/28 04:03:11;;;;;;;10.07;9.07;;;;;;;11.18;77.29;99465.16;5110345;28;40667;-80
2021/05/28 04:05:38;;;;;;;11.90;10.70;;;;;;;11.12;77.55;99455.75;5109950;28;41808;-78
2021/05/28 04:08:06;;;;;;;10.53;8.43;;;;;;;11.22;77.09;99469.34;5110425;28;43015;-79
2021/05/28 04:10:33;;;;;;;9.63;8.73;;;;;;;11.09;77.18;99443.50;5092663;28;40048;-81
2021/05/28 04:13:00;;;;;;;12.03;10.40;;;;;;;11.23;77.45;99463.09;5110222;28;41233;-79
2021/05/28 04:15:28;;;;;;;12.17;10.93;;;;;;;11.21;77.34;99457.03;5111291;27;42676;-78
2021/05/28 04:17:55;;;;;;;10.87;9.77;;;;;;;11.34;76.99;99472.19;5110148;28;42241;-79
2021/05/28 04:20:23;;;;;;;10.67;9.60;;;;;;;11.38;77.24;99471.03;5144407;27;40752;-79
2021/05/28 04:22:50;;;;;;;10.40;9.30;;;;;;;11.42;77.01;99467.28;5111060;27;42348;-79
2021/05/28 04:25:17;;;;;;;10.87;9.87;;;;;;;11.47;77.34;99464.38;5110285;28;41805;-79
2021/05/28 04:27:44;;;;;;;12.20;9.93;;;;;;;11.51;77.00;99463.25;5110568;28;42912;-78
2021/05/28 04:30:13;;;;;;;10.07;8.97;;;;;;;11.58;77.07;99461.13;5092921;28;38964;-80
2021/05/28 04:32:41;;;;;;;10.43;9.33;;;;;;;11.49;76.90;99442.16;5110841;28;40996;-80
2021/05/28 04:35:09;;;;;;;12.13;10.83;;;;;;;11.65;76.87;99465.97;5111127;27;42420;-79
2021/05/28 04:37:36;;;;;;;13.63;10.87;;;;;;;11.71;76.67;99465.66;5102788;28;41209;-79
2021/05/28 04:40:04;;;;;;;9.63;8.37;;;;;;;11.75;76.59;99464.53;5118688;28;39097;-80
2021/05/28 04:42:31;;;;;;;9.77;8.77;;;;;;;11.80;76.40;99461.63;5119179;28;41504;-79
2021/05/28 04:44:58;;;;;;;9.63;8.70;;;;;;;11.84;76.58;99461.38;5153337;27;43202;-79
2021/05/28 04:47:25;;;;;;;11.97;10.70;;;;;;;11.91;76.11;99464.50;5119137;28;41455;-79
2021/05/28 04:49:53;;;;;;;10.97;9.70;;;;;;;11.95;76.30;99470.50;5112634;27;40174;-80
2021/05/28 04:52:20;;;;;;;9.40;8.50;;;;;;;12.00;76.08;99479.03;5110980;27;42305;-80
2021/05/28 04:54:48;;;;;;;11.53;9.90;;;;;;;12.04;75.76;99472.63;5109133;28;43501;-79
2021/05/28 04:57:15;;;;;;;13.67;11.63;;;;;;;12.05;75.77;99469.03;5110716;27;42072;-79
2021/05/28 04:59:42;;;;;;;11.13;10.00;;;;;;;12.15;75.74;99484.31;5110123;28;42278;-79
2021/05/28 05:02:09;;;;;;;10.10;9.00;;;;;;;12.19;75.42;99469.06;5092895;28;41597;-79
2021/05/28 05:04:36;;;;;;;10.50;9.43;;;;;;;12.31;75.50;99478.09;5108232;28;42413;-80
2021/05/28 05:07:04;;;;;;;10.83;9.83;;;;;;;12.28;75.72;99471.16;5110119;27;42178;-80
2021/05/28 05:09:31;;;;;;;9.93;8.90;;;;;;;12.44;75.36;99490.56;5109241;28;40688;-80
2021/05/28 05:11:58;;;;;;;10.60;9.60;;;;;;;12.31;75.46;99463.03;5091972;28;40754;-79
2021/05/28 05:14:26;;;;;;;9.50;8.50;;;;;;;12.21;75.42;99430.84;5109457;28;43440;-80
2021/05/28 05:16:53;;;;;;;11.80;10.47;;;;;;;12.26;75.54;99435.88;5109646;28;42160;-80
2021/05/28 05:19:21;;;;;;;10.10;9.07;;;;;;;12.61;75.20;99496.66;5109792;28;40021;-79
2021/05/28 05:21:49;;;;;;;9.23;7.77;;;;;;;12.69;75.29;99497.03;5107821;28;42356;-80
2021/05/28 05:24:17;;;;;;;9.73;8.83;;;;;;;12.70;75.00;99490.78;5092571;28;41905;-79
2021/05/28 05:26:44;;;;;;;11.00;9.57;;;;;;;12.70;75.09;99482.81;5108942;28;42909;-80
2021/05/28 05:29:12;;;;;;;10.37;9.37;;;;;;;12.88;75.09;99500.28;5109415;28;39745;-80
2021/05/28 05:31:40;;;;;;;12.07;10.73;;;;;;;12.91;74.94;99500.09;5092196;28;41639;-80
2021/05/28 05:34:07;;;;;;;9.73;8.83;;;;;;;12.94;74.62;99495.44;5109949;27;43120;-80
2021/05/28 05:36:38;;;;;;;8.60;7.60;;;;;;;13.03;74.78;99494.00;5110603;27;42905;-81
2021/05/28 05:39:06;;;;;;;10.43;9.40;;;;;;;13.17;74.51;99520.63;5110674;27;40053;-80
2021/05/28 05:41:34;;;;;;;8.90;8.10;;;;;;;13.25;74.62;99515.69;5108343;28;41765;-81
2021/05/28 05:44:02;;;;;;;10.70;9.67;;;;;;;13.35;74.13;99521.31;5108750;28;41973;-81
2021/05/28 05:46:30;;;;;;;10.90;9.80;;;;;;;13.46;74.01;99512.63;5109085;28;41383;-81
2021/05/28 05:48:58;;;;;;;8.47;7.67;;;;;;;13.57;74.08;99511.00;5110298;27;40941;-80
2021/05/28 05:51:25;;;;;;;9.73;8.77;;;;;;;13.75;73.64;99510.72;5109003;28;41071;-80
2021/05/28 05:53:52;;;;;;;9.33;8.33;;;;;;;13.82;73.38;99502.28;5109125;27;41729;-80
2021/05/28 05:56:20;;;;;;;10.00;9.00;;;;;;;13.91;72.98;99496.34;5109686;27;43130;-81
2021/05/28 05:58:48;;;;;;;10.50;9.50;;;;;;;14.07;71.04;99520.16;5089367;28;38642;-81
2021/05/28 06:01:15;;;;;;;10.37;9.37;;;;;;;14.16;71.31;99524.00;5088123;28;40478;-81
2021/05/28 06:03:42;;;;;;;9.07;8.20;;;;;;;14.27;71.33;99526.81;5087668;28;45904;-82
2021/05/28 06:06:09;;;;;;;10.77;8.77;;;;;;;14.15;70.95;99490.31;5139872;27;41965;-82
2021/05/28 06:08:39;;;;;;;8.93;8.17;;;;;;;14.48;70.52;99535.19;5104528;28;39610;-80
2021/05/28 06:11:06;;;;;;;8.33;7.63;;;;;;;14.59;70.59;99533.50;5105747;27;41638;-82
2021/05/28 06:13:33;;;;;;;7.77;7.03;;;;;;;14.61;70.51;99510.25;5086764;28;41865;-82
2021/05/28 06:16:02;;;;;;;9.37;8.37;;;;;;;14.77;70.63;99523.41;5104939;27;42803;-80
2021/05/28 06:18:29;;;;;;;9.57;8.57;;;;;;;15.00;70.06;99540.47;5108817;28;39466;-81
2021/05/28 06:20:56;;;;;;;8.27;7.47;;;;;;;15.13;69.60;99538.66;5107978;28;42398;-81
2021/05/28 06:23:23;;;;;;;7.90;7.10;;;;;;;15.18;69.35;99528.53;5092092;28;42251;-82
2021/05/28 06:25:50;;;;;;;8.67;7.70;;;;;;;15.32;69.30;99532.88;5109310;27;41284;-83
2021/05/28 06:28:17;;;;;;;10.87;8.40;;;;;;;15.45;68.95;99545.22;5090603;28;39864;-82
2021/05/28 06:30:45;;;;;;;7.70;7.03;;;;;;;15.53;68.56;99542.00;5106638;28;42007;-82
2021/05/28 06:33:12;;;;;;;7.83;7.03;;;;;;;15.53;68.56;99519.81;5108862;27;43550;-82
2021/05/28 06:35:40;;;;;;;7.80;7.10;;;;;;;15.76;68.09;99549.25;5107449;28;41713;-82
2021/05/28 06:38:09;;;;;;;9.33;7.70;;;;;;;15.71;66.97;99538.03;5107513;28;39907;-82
2021/05/28 06:40:37;;;;;;;7.60;6.80;;;;;;;15.76;67.19;99537.72;5110498;27;41461;-81
2021/05/28 06:43:04;;;;;;;8.97;8.07;;;;;;;15.92;67.56;99559.66;5108068;28;42656;-83
2021/05/28 06:45:32;;;;;;;11.07;9.83;;;;;;;15.94;67.00;99547.06;5091580;28;41625;-82
2021/05/28 06:47:59;;;;;;;8.47;7.67;;;;;;;16.02;66.65;99552.69;5105131;28;39660;-82
2021/05/28 06:50:30;;;;;;;7.47;6.77;;;;;;;16.16;66.77;99563.22;5091019;28;41613;-82
2021/05/28 06:52:58;;;;;;;7.33;6.57;;;;;;;16.21;66.71;99564.66;5091247;28;42813;-82
2021/05/28 06:55:26;;;;;;;7.47;6.20;;;;;;;16.25;66.84;99571.50;5108076;28;41221;-83
2021/05/28 06:57:55;;;;;;;6.63;6.00;;;;;;;16.32;66.66;99578.09;5090039;28;38867;-84
2021/05/28 07:00:23;;;;;;;7.00;6.30;;;;;;;16.40;66.26;99570.34;5090120;28;43608;-84
2021/05/28 07:02:50;;;;;;;6.87;6.27;;;;;;;16.46;66.66;99569.88;5108051;28;43226;-81
2021/05/28 07:05:17;;;;;;;6.43;5.93;;;;;;;16.43;65.65;99559.44;5087990;28;41935;-84
2021/05/28 07:07:45;;;;;;;8.93;6.47;;;;;;;16.50;65.44;99563.34;5089583;28;39251;-84
2021/05/28 07:10:13;;;;;;;5.93;5.43;;;;;;;16.57;64.91;99572.59;5105027;28;41588;-81
2021/05/28 07:12:40;;;;;;;7.10;6.03;;;;;;;16.58;64.78;99563.59;5106217;28;42410;-83
2021/05/28 07:15:08;;;;;;;6.53;5.33;;;;;;;16.79;64.52;99583.44;5090125;28;42130;-80
2021/05/28 07:17:35;;;;;;;5.77;5.17;;;;;;;16.89;64.68;99572.88;5107806;28;39873;-81
2021/05/28 07:20:03;;;;;;;8.10;5.10;;;;;;;17.02;64.56;99575.44;5106637;28;40599;-82
2021/05/28 07:22:30;;;;;;;5.73;5.23;;;;;;;17.11;64.42;99577.41;5109860;27;43240;-80
2021/05/28 07:24:59;;;;;;;6.73;6.03;;;;;;;17.16;64.09;99569.88;5106714;28;43066;-81
2021/05/28 07:27:27;;;;;;;7.67;6.87;;;;;;;17.27;63.33;99571.69;5107134;27;39905;-83
2021/05/28 07:29:54;;;;;;;6.23;5.63;;;;;;;17.43;62.37;99578.38;5103790;28;41776;-80
2021/05/28 07:32:21;;;;;;;6.93;5.90;;;;;;;17.62;62.23;99576.94;5109045;28;41650;-80
2021/05/28 07:34:50;;;;;;;5.23;4.70;;;;;;;17.78;62.19;99577.44;5106377;28;42811;-80
2021/05/28 07:37:17;;;;;;;5.57;5.03;;;;;;;18.00;61.66;99598.84;5090121;28;38965;-82
2021/05/28 07:39:44;;;;;;;5.70;5.20;;;;;;;18.06;60.13;99592.97;5089643;28;42006;-79
2021/05/28 07:42:15;;;;;;;5.80;4.97;;;;;;;18.26;58.60;99610.97;5104628;28;43022;-81
2021/05/28 07:44:43;;;;;;;6.10;5.57;;;;;;;18.11;57.93;99573.84;5105726;28;42798;-78
2021/05/28 07:47:11;;;;;;;5.90;5.30;;;;;;;18.50;57.85;99612.59;5105600;28;39126;-79
2021/05/28 07:49:38;;;;;;;6.13;4.73;;;;;;;18.53;56.94;99596.25;5082536;28;41329;-82
2021/05/28 07:52:06;;;;;;;5.73;4.20;;;;;;;18.71;56.55;99613.53;5107294;27;43324;-79
2021/05/28 07:54:34;;;;;;;4.93;3.83;;;;;;;18.86;57.11;99604.19;5104377;28;41898;-78
2021/05/28 07:57:01;;;;;;;8.17;5.70;;;;;;;19.06;56.61;99605.16;5088513;28;39894;-82
2021/05/28 07:59:29;;;;;;;5.83;4.70;;;;;;;19.43;55.53;99612.72;5088765;28;40650;-81
2021/05/28 08:01:56;;;;;;;5.10;4.27;;;;;;;19.75;54.21;99623.41;5108079;27;42527;-83
2021/05/28 08:04:24;;;;;;;5.17;4.00;;;;;;;19.88;53.80;99618.63;5122188;27;41335;-79
2021/05/28 08:06:51;;;;;;;4.33;3.90;;;;;;;20.19;53.46;99624.78;5107094;28;39962;-81
2021/05/28 08:09:18;;;;;;;4.80;3.87;;;;;;;20.25;53.09;99617.03;5108265;28;41391;-82
2021/05/28 08:11:45;;;;;;;4.10;3.70;;;;;;;20.36;52.35;99630.41;5092723;28;42718;-81
2021/05/28 08:14:12;;;;;;;6.53;3.90;;;;;;;20.30;51.91;99628.22;5110538;27;42140;-81
2021/05/28 08:16:40;;;;;;;4.97;3.90;;;;;;;20.31;52.16;99638.00;5093018;28;39851;-82
2021/05/28 08:19:07;;;;;;;3.60;3.20;;;;;;;20.30;52.35;99636.28;5110211;28;42419;-78
2021/05/28 08:21:35;;;;;;;3.80;3.50;;;;;;;20.21;52.91;99630.91;5128030;27;41936;-82
2021/05/28 08:24:02;;;;;;;3.10;2.80;;;;;;;20.01;53.71;99619.25;5109692;28;43006;-79
2021/05/28 08:26:29;;;;;;;3.60;3.17;;;;;;;19.85;54.49;99614.38;5094164;28;38858;-78
2021/05/28 08:28:56;;;;;;;3.67;3.37;;;;;;;19.77;54.23;99621.44;5109587;28;40787;-81
2021/05/28 08:31:23;;;;;;;2.90;2.67;;;;;;;19.58;54.67;99623.03;5110297;28;43431;-79
2021/05/28 08:33:51;;;;;;;6.17;4.67;;;;;;;19.38;54.89;99619.38;5110151;28;40855;-79
2021/05/28 08:36:18;;;;;;;4.23;3.73;;;;;;;19.27;54.68;99632.03;5109837;28;39693;-84
2021/05/28 08:38:46;;;;;;;4.40;4.10;;;;;;;19.01;55.50;99612.78;5093620;28;40600;-79
2021/05/28 08:41:15;;;;;;;5.10;4.30;;;;;;;18.85;55.20;99623.97;5109174;28;41499;-79
2021/05/28 08:43:43;;;;;;;5.30;4.80;;;;;;;18.64;54.62;99636.50;5092958;28;41725;-80
2021/05/28 08:46:13;;;;;;;5.63;4.70;;;;;;;18.38;55.85;99622.53;5110641;28;20283;-78
2021/05/28 08:48:40;;;;;;;4.27;3.67;;;;;;;18.35;57.15;99612.03;5110135;28;41904;-78
2021/05/28 08:51:09;;;;;;;4.90;3.40;;;;;;;18.41;57.37;99613.38;5110459;27;42706;-78
2021/05/28 08:53:36;;;;;;;3.77;3.47;;;;;;;18.49;56.18;99624.31;5093137;28;41300;-77
2021/05/28 08:56:08;;;;;;;5.67;4.07;;;;;;;18.54;55.88;99619.44;5108790;28;39763;-78
2021/05/28 08:58:36;;;;;;;3.87;3.40;;;;;;;18.62;56.32;99617.00;5093143;28;40804;-81
2021/05/28 09:01:06;;;;;;;5.07;3.53;;;;;;;18.77;56.35;99615.72;5110111;27;42792;-81
2021/05/28 09:03:36;;;;;;;3.83;3.33;;;;;;;18.96;56.57;99615.84;5109001;28;42259;-78
2021/05/28 09:06:14;;;;;;;5.30;3.93;;;;;;;19.07;54.73;99632.84;5107981;28;40262;-79
2021/05/28 09:08:43;;;;;;;3.30;3.00;;;;;;;19.12;55.32;99636.03;5109518;28;42411;-79
2021/05/28 09:11:13;;;;;;;6.13;3.90;;;;;;;19.07;54.00;99627.50;5109347;28;42929;-78
2021/05/28 09:13:44;;;;;;;4.17;3.50;;;;;;;19.07;53.38;99638.22;5109162;28;42819;-80
2021/05/28 09:16:13;;;;;;;3.17;2.90;;;;;;;18.92;54.94;99625.13;5109671;28;38961;-80
2021/05/28 09:18:51;;;;;;;3.90;3.17;;;;;;;18.79;54.77;99618.25;5127077;27;41613;-81
2021/05/28 09:21:24;;;;;;;4.07;2.93;;;;;;;18.69;54.80;99634.25;5110584;27;43780;-82
2021/05/28 09:23:52;;;;;;;4.13;2.77;;;;;;;18.50;54.46;99634.94;5127380;27;43011;-78
2021/05/28 09:26:20;;;;;;;3.87;3.07;;;;;;;18.42;55.00;99625.81;5071678;28;39055;-78
2021/05/28 09:28:55;;;;;;;4.77;3.03;;;;;;;18.37;55.69;99614.59;5089121;28;42353;-82
2021/05/28 09:31:23;;;;;;;4.97;3.50;;;;;;;18.28;54.76;99609.03;5071607;28;43000;-81
2021/05/28 09:34:03;;;;;;;3.93;2.93;;;;;;;18.48;54.41;99626.16;5072770;28;41483;-79
2021/05/28 09:36:33;;;;;;;4.13;3.03;;;;;;;18.62;54.66;99617.00;5109101;28;39755;-79
2021/05/28 09:39:06;;;;;;;4.70;3.70;;;;;;;18.98;53.88;99611.19;5108213;28;43630;-80
2021/05/28 09:41:45;;;;;;;4.53;3.43;;;;;;;19.61;52.21;99630.81;5091943;28;42156;-79
2021/05/28 09:44:15;;;;;;;5.43;3.60;;;;;;;20.15;51.26;99636.84;5108126;28;41337;-80
2021/05/28 09:47:03;;;;;;;4.53;3.10;;;;;;;20.58;51.18;99628.44;5108943;28;40088;-80
2021/05/28 09:49:33;;;;;;;3.67;3.20;;;;;;;20.74;50.17;99639.50;5109236;28;41258;-79
2021/05/28 09:52:09;;;;;;;3.67;2.80;;;;;;;20.90;50.30;99628.16;5090648;28;41791;-79
2021/05/28 09:54:37;;;;;;;4.60;2.80;;;;;;;20.97;49.25;99624.75;5091699;28;42111;-79
2021/05/28 09:57:06;;;;;;;3.07;2.73;;;;;;;21.11;48.31;99635.09;5108146;28;40277;-79
2021/05/28 09:59:45;;;;;;;4.40;2.73;;;;;;;21.30;47.89;99630.69;5109517;27;41462;-81
2021/05/28 10:02:25;;;;;;;2.73;2.30;;;;;;;21.53;48.52;99642.81;5091947;28;42926;-80
2021/05/28 10:04:54;;;;;;;2.43;2.13;;;;;;;21.74;48.13;99639.94;5091019;28;41824;-80
2021/05/28 10:07:21;;;;;;;4.07;3.43;;;;;;;21.92;47.12;99637.28;5086458;27;217953;-80
2021/05/28 10:09:51;;;;;;;2.73;2.20;;;;;;;22.11;47.70;99630.00;5077997;28;41869;-80
2021/05/28 10:12:18;;;;;;;2.87;2.33;;;;;;;22.29;46.44;99635.41;5051192;28;41708;-80
2021/05/28 10:14:46;;;;;;;3.13;2.70;;;;;;;22.50;46.63;99641.38;5067814;28;42765;-80
2021/05/28 10:17:14;;;;;;;3.03;2.10;;;;;;;22.73;45.16;99649.06;5068166;28;39995;-80
2021/05/28 10:19:41;;;;;;;2.20;1.97;;;;;;;22.90;43.07;99667.13;5066853;28;41031;-81
2021/05/28 10:22:09;;;;;;;2.87;1.97;;;;;;;22.76;41.83;99682.03;5067411;28;42586;-81
2021/05/28 10:24:36;;;;;;;3.10;1.67;;;;;;;22.68;43.24;99668.41;5067748;28;42063;-81
2021/05/28 10:27:06;;;;;;;2.63;1.60;;;;;;;22.66;43.78;99665.00;5050541;28;39057;-82
2021/05/28 10:29:33;;;;;;;2.90;1.23;;;;;;;22.54;42.94;99666.22;5051602;28;40827;-81
2021/05/28 10:32:02;;;;;;;7.20;5.77;;;;;;;22.38;43.87;99663.34;5066204;28;43426;-82
2021/05/28 10:34:30;;;;;;;13.27;10.20;;;;;;;21.93;43.00;99671.34;5067461;28;42622;-81
2021/05/28 10:36:58;;;;;;;4.70;3.70;;;;;;;21.63;45.17;99659.00;5066451;28;40318;-82
2021/05/28 10:39:27;;;;;;;2.43;1.90;;;;;;;21.32;45.17;99671.81;5060138;28;41553;-83
2021/05/28 10:42:08;;;;;;;2.53;1.87;;;;;;;20.82;45.21;99663.03;5064706;28;42398;-79
2021/05/28 10:44:41;;;;;;;2.43;1.70;;;;;;;20.61;48.47;99647.00;5065998;28;41600;-82
2021/05/28 10:47:23;;;;;;;3.73;2.30;;;;;;;20.46;50.51;99618.78;5063356;28;41375;-81
2021/05/28 10:49:51;;;;;;;2.90;2.20;;;;;;;20.37;50.58;99626.72;5066073;28;41783;-81
2021/05/28 10:52:30;;;;;;;2.77;1.87;;;;;;;20.18;48.20;99647.31;5049212;28;41631;-80
2021/05/28 10:55:02;;;;;;;2.30;1.90;;;;;;;20.07;48.87;99645.56;5066689;28;41167;-81
2021/05/28 10:57:51;;;;;;;3.20;1.60;;;;;;;20.22;49.52;99644.22;5064546;28;39820;-82
2021/05/28 11:00:30;;;;;;;1.97;1.60;;;;;;;20.41;47.41;99655.03;5030114;28;40540;-81
2021/05/28 11:03:08;;;;;;;2.17;1.50;;;;;;;20.82;46.38;99657.63;5048706;28;43421;-81
2021/05/28 11:05:50;;;;;;;1.80;1.47;;;;;;;21.47;44.95;99668.53;5063309;28;42186;-81
2021/05/28 11:08:41;;;;;;;2.13;1.30;;;;;;;22.13;44.63;99667.63;5069667;28;40081;-81
2021/05/28 11:11:09;;;;;;;2.27;1.10;;;;;;;22.76;42.27;99671.22;5068627;28;40788;-81
2021/05/28 11:13:58;;;;;;;1.60;1.30;;;;;;;23.19;41.69;99662.34;5070153;28;42646;-81
2021/05/28 11:16:27;;;;;;;2.13;1.40;;;;;;;23.35;42.03;99660.78;5052759;28;43407;-81
2021/05/28 11:18:55;;;;;;;2.33;1.00;;;;;;;23.29;40.00;99673.91;5067697;28;40060;-82
2021/05/28 11:21:24;;;;;;;3.27;0.90;;;;;;;23.07;39.57;99658.19;5050463;28;41759;-81
2021/05/28 11:23:53;;;;;;;1.10;0.83;;;;;;;23.12;38.99;99674.75;5050230;28;41402;-81
2021/05/28 11:26:25;;;;;;;1.67;0.80;;;;;;;23.13;38.94;99665.66;5066638;28;42292;-81
2021/05/28 11:28:56;;;;;;;0.97;0.90;;;;;;;23.25;38.37;99669.81;5051615;28;39978;-81
2021/05/28 11:31:25;;;;;;;0.80;0.80;;;;;;;23.48;37.70;99658.50;5070113;28;41988;-81
2021/05/28 11:33:58;;;;;;;16.37;14.67;;;;;;;24.11;35.65;99680.69;5071171;28;43208;-81
2021/05/28 11:36:52;;;;;;;3.17;2.57;;;;;;;25.37;37.44;99674.22;5064753;28;42775;-81